首页
METAR-TAF:

METAR-TAF

机场 :

巴黎-奥利机场

巴黎-奥利, 法国

纬度: 48-44N, 经度: 002-24E, 海拔: 89米

当前天气观测

该预报发布于22分钟前的16:30 UTC
风速11节,风向东转东北,在东北东转东南之间变化
温度 34°C
湿度 44%
气压 1020 hPa
能见度10公里或以上
1500米以下无云,无积雨云

METAR: LFPO 261630Z 07011KT 040V110 CAVOK 34/20 Q1020 NOSIG

时间: 18:52 (16:52 UTC)

预报

该预报发布于5小时和52分钟前的11:00 UTC
预报有效从26日的 12点(UTC)到 27日的 18点(UTC)
风速10节,风向东北
能见度10公里或以上
1500米以下无云,无积雨云
短暂存在
从 26日的 12点(UTC)到 27日的 18点(UTC)
风速10节,风向东北,有时为20节阵风

TAF: LFPO 261100Z 2612/2718 04010KT CAVOK TEMPO 2612/2718 04010G20KT

超过4000个机场的气象观测和天气预报(METAR&TAF报告)。

可查询的气象台以黄色和红色小点在地图上表示。

将鼠标移到小点上方,可查看气象台名称。

然后点击查看天气观测和预报。

如需切换地图:点击带黑十字的绿色按钮放大地图;点击带横线的绿色按钮缩小地图;或者点击绿色箭头查看邻近地区的地图。


METAR-TAF: